Georg Stage — OYKL — position and weather

sailwx.info

Track history (hours):
 
Tides and Currents Weather Stations Pressure Air Temp Water Temp Dewpoint Dewpoint Depression Visibility Wind Speed Wind Dir Waves Ship Positions

Georg Stage (Denmark)

Ship's website: http://www.georgstage.dk

Last reported at 2017-Apr-09 19:44 UTC. Time now 2017-Apr-27 07:13 UTC.
Position N 27°56' W 016°26'.
Warning: this ship's position is 17 days out of date.

Length 54 m; draft 4.2 m.

Type: Sailing vessel. MMSI: 219417000.

Date/timePositionNaut miles runAvg speedWind from/ knotsBaromVisibWave heightAir tempDewpointWater temp
2017-Apr-09 19:44N 27°56' W 016°26'3 5.4
2017-Apr-09 19:11N 27°59' W 016°24'1 6.0
2017-Apr-09 18:57N 28°00' W 016°23'3 5.9
2017-Apr-09 18:28N 28°02' W 016°22'2 4.8
2017-Apr-09 17:59N 28°05' W 016°20'5 4.4
2017-Apr-09 16:49N 28°10' W 016°20'1 4.7
2017-Apr-09 16:30N 28°11' W 016°19'3 5.2
2017-Apr-09 15:58N 28°13' W 016°18'3 5.3
2017-Apr-09 15:19N 28°17' W 016°17'2 5.3
2017-Apr-09 14:58N 28°19' W 016°16'5 4.7
2017-Apr-09 13:53N 28°24' W 016°15'2 4.3
2017-Apr-09 13:27N 28°25' W 016°15'2 3.8
2017-Apr-09 12:59N 28°27' W 016°15'  
2017-Apr-06 04:44N 28°28' W 016°15'0 0.0
2017-Apr-06 04:17N 28°28' W 016°15'0 0.0
2017-Apr-04 11:47N 28°28' W 016°15'  
2017-Apr-01 01:29N 28°28' W 016°15'0 0.0
2017-Apr-01 00:56N 28°28' W 016°15'0 0.0
2017-Apr-01 00:29N 28°28' W 016°15'0 0.0
2017-Mar-31 22:32N 28°28' W 016°15'0 0.0
2017-Mar-31 22:14N 28°28' W 016°15'0 0.0
2017-Mar-31 21:59N 28°28' W 016°15'0 0.0
2017-Mar-31 20:02N 28°28' W 016°15'0 0.0
2017-Mar-31 19:50N 28°28' W 016°15'0 0.0
2017-Mar-31 19:20N 28°28' W 016°15'0 0.0
2017-Mar-31 06:20N 28°28' W 016°15'0 0.0
2017-Mar-31 04:59N 28°28' W 016°15'0 0.0
2017-Mar-31 04:32N 28°28' W 016°15'  
Track history (hours):
 
Tides and Currents Weather Stations Pressure Air Temp Water Temp Dewpoint Dewpoint Depression Visibility Wind Speed Wind Dir Waves Ship Positions

Georg Stage (Denmark)

Ship's website: http://www.georgstage.dk

Last reported at 2017-Apr-09 19:44 UTC. Time now 2017-Apr-27 07:13 UTC.
Position N 27°56' W 016°26'.
Warning: this ship's position is 17 days out of date.

Length 54 m; draft 4.2 m.

Type: Sailing vessel. MMSI: 219417000.

Date/timePositionNaut miles runAvg speedWind from/ knotsBaromVisibWave heightAir tempDewpointWater temp
2017-Apr-09 19:44N 27°56' W 016°26'3 5.4
2017-Apr-09 19:11N 27°59' W 016°24'1 6.0
2017-Apr-09 18:57N 28°00' W 016°23'3 5.9
2017-Apr-09 18:28N 28°02' W 016°22'2 4.8
2017-Apr-09 17:59N 28°05' W 016°20'5 4.4
2017-Apr-09 16:49N 28°10' W 016°20'1 4.7
2017-Apr-09 16:30N 28°11' W 016°19'3 5.2
2017-Apr-09 15:58N 28°13' W 016°18'3 5.3
2017-Apr-09 15:19N 28°17' W 016°17'2 5.3
2017-Apr-09 14:58N 28°19' W 016°16'5 4.7
2017-Apr-09 13:53N 28°24' W 016°15'2 4.3
2017-Apr-09 13:27N 28°25' W 016°15'2 3.8
2017-Apr-09 12:59N 28°27' W 016°15'  
2017-Apr-06 04:44N 28°28' W 016°15'0 0.0
2017-Apr-06 04:17N 28°28' W 016°15'0 0.0
2017-Apr-04 11:47N 28°28' W 016°15'  
2017-Apr-01 01:29N 28°28' W 016°15'0 0.0
2017-Apr-01 00:56N 28°28' W 016°15'0 0.0
2017-Apr-01 00:29N 28°28' W 016°15'0 0.0
2017-Mar-31 22:32N 28°28' W 016°15'0 0.0
2017-Mar-31 22:14N 28°28' W 016°15'0 0.0
2017-Mar-31 21:59N 28°28' W 016°15'0 0.0
2017-Mar-31 20:02N 28°28' W 016°15'0 0.0
2017-Mar-31 19:50N 28°28' W 016°15'0 0.0
2017-Mar-31 19:20N 28°28' W 016°15'0 0.0
2017-Mar-31 06:20N 28°28' W 016°15'0 0.0
2017-Mar-31 04:59N 28°28' W 016°15'0 0.0
2017-Mar-31 04:32N 28°28' W 016°15'  

Dump ship's entire track history